sensor_id;sensor_type;location;lat;lon;timestamp;pressure;altitude;pressure_sealevel;temperature;humidity
58991;BME280;44781;53.444;14.476;2023-10-13T00:01:59;101420.08;;;5.99;73.41
58991;BME280;44781;53.444;14.476;2023-10-13T00:04:26;101422.81;;;5.96;73.61
58991;BME280;44781;53.444;14.476;2023-10-13T00:07:03;101415.72;;;5.94;73.49
58991;BME280;44781;53.444;14.476;2023-10-13T00:09:31;101418.45;;;5.91;73.43
58991;BME280;44781;53.444;14.476;2023-10-13T00:12:05;101421.67;;;5.90;73.46
58991;BME280;44781;53.444;14.476;2023-10-13T00:14:41;101421.92;;;5.88;73.72
58991;BME280;44781;53.444;14.476;2023-10-13T00:17:12;101421.19;;;5.89;73.86
58991;BME280;44781;53.444;14.476;2023-10-13T00:19:46;101408.86;;;5.90;74.08
58991;BME280;44781;53.444;14.476;2023-10-13T00:22:14;101410.16;;;5.92;74.36
58991;BME280;44781;53.444;14.476;2023-10-13T00:24:46;101408.33;;;5.95;74.49
58991;BME280;44781;53.444;14.476;2023-10-13T00:27:20;101402.48;;;5.96;74.78
58991;BME280;44781;53.444;14.476;2023-10-13T00:29:59;101400.89;;;5.97;75.01
58991;BME280;44781;53.444;14.476;2023-10-13T00:32:45;101395.79;;;5.97;75.22
58991;BME280;44781;53.444;14.476;2023-10-13T00:35:13;101393.44;;;5.98;75.55
58991;BME280;44781;53.444;14.476;2023-10-13T00:37:56;101402.06;;;6.01;75.93
58991;BME280;44781;53.444;14.476;2023-10-13T00:40:25;101406.23;;;6.06;76.32
58991;BME280;44781;53.444;14.476;2023-10-13T00:43:01;101406.63;;;6.13;76.58
58991;BME280;44781;53.444;14.476;2023-10-13T00:46:07;101407.84;;;6.20;76.93
58991;BME280;44781;53.444;14.476;2023-10-13T00:48:40;101410.68;;;6.27;77.22
58991;BME280;44781;53.444;14.476;2023-10-13T00:51:22;101409.27;;;6.35;77.50
58991;BME280;44781;53.444;14.476;2023-10-13T00:54:02;101402.19;;;6.43;77.91
58991;BME280;44781;53.444;14.476;2023-10-13T00:56:34;101394.61;;;6.51;78.16
58991;BME280;44781;53.444;14.476;2023-10-13T00:59:08;101393.19;;;6.59;78.17
58991;BME280;44781;53.444;14.476;2023-10-13T01:01:36;101395.97;;;6.66;78.47
58991;BME280;44781;53.444;14.476;2023-10-13T01:04:04;101398.40;;;6.74;78.65
58991;BME280;44781;53.444;14.476;2023-10-13T01:06:37;101390.52;;;6.81;78.73
58991;BME280;44781;53.444;14.476;2023-10-13T01:09:09;101377.38;;;6.80;78.76
58991;BME280;44781;53.444;14.476;2023-10-13T01:11:41;101375.07;;;6.84;78.80
58991;BME280;44781;53.444;14.476;2023-10-13T01:14:11;101383.10;;;6.92;78.97
58991;BME280;44781;53.444;14.476;2023-10-13T01:16:39;101385.86;;;6.97;79.06
58991;BME280;44781;53.444;14.476;2023-10-13T01:19:13;101384.70;;;7.02;79.36
58991;BME280;44781;53.444;14.476;2023-10-13T01:21:40;101389.36;;;7.07;79.62
58991;BME280;44781;53.444;14.476;2023-10-13T01:24:07;101388.69;;;7.13;79.72
58991;BME280;44781;53.444;14.476;2023-10-13T01:26:35;101394.48;;;7.20;80.07
58991;BME280;44781;53.444;14.476;2023-10-13T01:29:10;101396.21;;;7.28;80.35
58991;BME280;44781;53.444;14.476;2023-10-13T01:31:44;101391.83;;;7.34;80.57
58991;BME280;44781;53.444;14.476;2023-10-13T01:34:18;101397.64;;;7.44;80.89
58991;BME280;44781;53.444;14.476;2023-10-13T01:36:49;101395.05;;;7.53;81.23
58991;BME280;44781;53.444;14.476;2023-10-13T01:39:24;101391.09;;;7.62;81.39
58991;BME280;44781;53.444;14.476;2023-10-13T01:41:55;101391.52;;;7.70;81.59
58991;BME280;44781;53.444;14.476;2023-10-13T01:44:26;101382.91;;;7.76;81.73
58991;BME280;44781;53.444;14.476;2023-10-13T01:47:00;101380.33;;;7.81;81.85
58991;BME280;44781;53.444;14.476;2023-10-13T01:49:33;101371.31;;;7.86;81.77
58991;BME280;44781;53.444;14.476;2023-10-13T01:52:09;101370.71;;;7.90;82.07
58991;BME280;44781;53.444;14.476;2023-10-13T01:54:43;101377.44;;;7.96;82.24
58991;BME280;44781;53.444;14.476;2023-10-13T01:57:12;101380.05;;;8.03;82.38
58991;BME280;44781;53.444;14.476;2023-10-13T01:59:46;101384.42;;;8.10;82.61
58991;BME280;44781;53.444;14.476;2023-10-13T02:02:15;101384.41;;;8.16;82.71
58991;BME280;44781;53.444;14.476;2023-10-13T02:04:46;101383.67;;;8.23;82.94
58991;BME280;44781;53.444;14.476;2023-10-13T02:07:16;101383.59;;;8.31;83.06
58991;BME280;44781;53.444;14.476;2023-10-13T02:09:43;101391.52;;;8.40;83.24
58991;BME280;44781;53.444;14.476;2023-10-13T02:12:10;101398.08;;;8.49;83.34
58991;BME280;44781;53.444;14.476;2023-10-13T02:14:37;101395.63;;;8.58;83.46
58991;BME280;44781;53.444;14.476;2023-10-13T02:17:04;101386.52;;;8.66;83.30
58991;BME280;44781;53.444;14.476;2023-10-13T02:19:40;101389.20;;;8.75;83.29
58991;BME280;44781;53.444;14.476;2023-10-13T02:22:11;101382.99;;;8.82;83.40
58991;BME280;44781;53.444;14.476;2023-10-13T02:24:38;101374.42;;;8.86;83.35
58991;BME280;44781;53.444;14.476;2023-10-13T02:27:07;101375.58;;;8.91;83.39
58991;BME280;44781;53.444;14.476;2023-10-13T02:29:41;101375.54;;;8.95;83.38
58991;BME280;44781;53.444;14.476;2023-10-13T02:32:08;101372.45;;;8.99;83.33
58991;BME280;44781;53.444;14.476;2023-10-13T02:34:45;101361.05;;;9.04;83.38
58991;BME280;44781;53.444;14.476;2023-10-13T02:37:12;101358.31;;;9.08;83.37
58991;BME280;44781;53.444;14.476;2023-10-13T02:39:40;101356.83;;;9.13;83.34
58991;BME280;44781;53.444;14.476;2023-10-13T02:42:08;101352.80;;;9.18;83.36
58991;BME280;44781;53.444;14.476;2023-10-13T02:44:35;101354.92;;;9.24;83.54
58991;BME280;44781;53.444;14.476;2023-10-13T02:47:03;101356.65;;;9.30;83.68
58991;BME280;44781;53.444;14.476;2023-10-13T02:49:40;101353.25;;;9.37;83.73
58991;BME280;44781;53.444;14.476;2023-10-13T02:52:12;101351.42;;;9.43;83.68
58991;BME280;44781;53.444;14.476;2023-10-13T02:54:40;101342.94;;;9.50;83.64
58991;BME280;44781;53.444;14.476;2023-10-13T02:57:14;101335.34;;;9.56;83.63
58991;BME280;44781;53.444;14.476;2023-10-13T02:59:43;101324.20;;;9.59;83.75
58991;BME280;44781;53.444;14.476;2023-10-13T03:02:13;101329.27;;;9.62;83.68
58991;BME280;44781;53.444;14.476;2023-10-13T03:04:47;101328.98;;;9.64;83.73
58991;BME280;44781;53.444;14.476;2023-10-13T03:07:14;101323.20;;;9.66;83.81
58991;BME280;44781;53.444;14.476;2023-10-13T03:09:50;101317.31;;;9.70;83.92
58991;BME280;44781;53.444;14.476;2023-10-13T03:12:19;101311.39;;;9.75;83.89
58991;BME280;44781;53.444;14.476;2023-10-13T03:14:47;101313.01;;;9.79;84.12
58991;BME280;44781;53.444;14.476;2023-10-13T03:17:22;101310.52;;;9.85;84.31
58991;BME280;44781;53.444;14.476;2023-10-13T03:20:00;101307.65;;;9.92;84.23
58991;BME280;44781;53.444;14.476;2023-10-13T03:22:27;101300.18;;;9.98;84.39
58991;BME280;44781;53.444;14.476;2023-10-13T03:24:58;101299.36;;;10.05;84.43
58991;BME280;44781;53.444;14.476;2023-10-13T03:27:34;101306.69;;;10.12;84.60
58991;BME280;44781;53.444;14.476;2023-10-13T03:30:27;101304.09;;;10.19;84.59
58991;BME280;44781;53.444;14.476;2023-10-13T03:33:05;101301.42;;;10.25;84.70
58991;BME280;44781;53.444;14.476;2023-10-13T03:35:39;101298.10;;;10.30;84.63
58991;BME280;44781;53.444;14.476;2023-10-13T03:38:10;101291.83;;;10.35;84.44
58991;BME280;44781;53.444;14.476;2023-10-13T03:40:45;101288.77;;;10.38;84.39
58991;BME280;44781;53.444;14.476;2023-10-13T03:43:15;101286.30;;;10.40;84.21
58991;BME280;44781;53.444;14.476;2023-10-13T03:45:49;101284.51;;;10.43;84.28
58991;BME280;44781;53.444;14.476;2023-10-13T03:48:30;101288.70;;;10.47;84.32
58991;BME280;44781;53.444;14.476;2023-10-13T03:51:00;101287.21;;;10.51;84.65
58991;BME280;44781;53.444;14.476;2023-10-13T03:53:33;101279.52;;;10.55;84.74
58991;BME280;44781;53.444;14.476;2023-10-13T03:56:10;101266.31;;;10.59;84.91
58991;BME280;44781;53.444;14.476;2023-10-13T03:58:54;101258.67;;;10.65;84.94
58991;BME280;44781;53.444;14.476;2023-10-13T04:01:24;101257.01;;;10.71;85.19
58991;BME280;44781;53.444;14.476;2023-10-13T04:03:58;101246.88;;;10.77;85.36
58991;BME280;44781;53.444;14.476;2023-10-13T04:06:43;101239.89;;;10.84;85.47
58991;BME280;44781;53.444;14.476;2023-10-13T04:09:20;101234.30;;;10.90;85.52
58991;BME280;44781;53.444;14.476;2023-10-13T04:11:57;101230.65;;;10.97;85.62
58991;BME280;44781;53.444;14.476;2023-10-13T04:14:35;101231.92;;;11.04;85.60
58991;BME280;44781;53.444;14.476;2023-10-13T04:17:21;101232.50;;;11.11;85.49
58991;BME280;44781;53.444;14.476;2023-10-13T04:19:56;101229.45;;;11.17;85.41
58991;BME280;44781;53.444;14.476;2023-10-13T04:22:34;101218.61;;;11.23;85.60
58991;BME280;44781;53.444;14.476;2023-10-13T04:28:09;101212.63;;;11.32;85.37
58991;BME280;44781;53.444;14.476;2023-10-13T04:30:50;101208.88;;;11.35;85.44
58991;BME280;44781;53.444;14.476;2023-10-13T04:33:26;101210.96;;;11.38;85.33
58991;BME280;44781;53.444;14.476;2023-10-13T04:36:11;101205.82;;;11.40;85.33
58991;BME280;44781;53.444;14.476;2023-10-13T04:38:55;101197.64;;;11.43;85.30
58991;BME280;44781;53.444;14.476;2023-10-13T04:41:37;101196.79;;;11.48;85.30
58991;BME280;44781;53.444;14.476;2023-10-13T04:44:17;101193.76;;;11.53;85.49
58991;BME280;44781;53.444;14.476;2023-10-13T04:47:02;101189.61;;;11.59;85.63
58991;BME280;44781;53.444;14.476;2023-10-13T04:49:31;101176.13;;;11.64;85.69
58991;BME280;44781;53.444;14.476;2023-10-13T04:52:05;101171.66;;;11.70;85.69
58991;BME280;44781;53.444;14.476;2023-10-13T04:54:41;101170.70;;;11.75;85.81
58991;BME280;44781;53.444;14.476;2023-10-13T04:57:12;101174.32;;;11.81;85.69
58991;BME280;44781;53.444;14.476;2023-10-13T04:59:59;101175.79;;;11.88;85.90
58991;BME280;44781;53.444;14.476;2023-10-13T05:02:40;101177.27;;;11.95;85.70
58991;BME280;44781;53.444;14.476;2023-10-13T05:05:12;101177.68;;;12.01;85.66
58991;BME280;44781;53.444;14.476;2023-10-13T05:07:44;101175.80;;;12.07;85.53
58991;BME280;44781;53.444;14.476;2023-10-13T05:10:31;101173.92;;;12.13;85.71
58991;BME280;44781;53.444;14.476;2023-10-13T05:13:17;101173.02;;;12.18;85.53
58991;BME280;44781;53.444;14.476;2023-10-13T05:16:02;101163.50;;;12.22;85.44
58991;BME280;44781;53.444;14.476;2023-10-13T05:18:47;101162.73;;;12.25;85.47
58991;BME280;44781;53.444;14.476;2023-10-13T05:21:33;101154.40;;;12.28;85.39
58991;BME280;44781;53.444;14.476;2023-10-13T05:24:19;101159.29;;;12.31;85.40
58991;BME280;44781;53.444;14.476;2023-10-13T05:27:07;101155.27;;;12.35;85.63
58991;BME280;44781;53.444;14.476;2023-10-13T05:29:53;101159.33;;;12.40;85.47
58991;BME280;44781;53.444;14.476;2023-10-13T05:32:40;101154.91;;;12.44;85.57
58991;BME280;44781;53.444;14.476;2023-10-13T05:35:25;101148.00;;;12.49;85.71
58991;BME280;44781;53.444;14.476;2023-10-13T05:38:13;101141.61;;;12.53;85.85
58991;BME280;44781;53.444;14.476;2023-10-13T05:41:01;101130.80;;;12.58;85.70
58991;BME280;44781;53.444;14.476;2023-10-13T05:43:55;101115.49;;;12.63;85.92
58991;BME280;44781;53.444;14.476;2023-10-13T05:46:41;101126.09;;;12.68;85.79
58991;BME280;44781;53.444;14.476;2023-10-13T05:49:26;101138.77;;;12.74;85.75
58991;BME280;44781;53.444;14.476;2023-10-13T05:52:07;101138.70;;;12.79;85.65
58991;BME280;44781;53.444;14.476;2023-10-13T05:54:46;101138.48;;;12.84;85.91
58991;BME280;44781;53.444;14.476;2023-10-13T05:57:32;101136.27;;;12.90;85.73
58991;BME280;44781;53.444;14.476;2023-10-13T06:00:18;101140.33;;;12.94;85.58
58991;BME280;44781;53.444;14.476;2023-10-13T06:03:03;101135.30;;;12.97;85.64
58991;BME280;44781;53.444;14.476;2023-10-13T06:05:49;101133.04;;;12.99;85.68
58991;BME280;44781;53.444;14.476;2023-10-13T06:08:34;101126.77;;;13.00;85.47
58991;BME280;44781;53.444;14.476;2023-10-13T06:11:20;101128.81;;;13.00;85.51
58991;BME280;44781;53.444;14.476;2023-10-13T06:14:06;101124.80;;;13.02;85.48
58991;BME280;44781;53.444;14.476;2023-10-13T06:16:52;101120.70;;;13.05;85.60
58991;BME280;44781;53.444;14.476;2023-10-13T06:19:40;101110.15;;;13.08;85.71
58991;BME280;44781;53.444;14.476;2023-10-13T06:22:27;101099.95;;;13.11;85.91
58991;BME280;44781;53.444;14.476;2023-10-13T06:25:13;101088.90;;;13.14;85.83
58991;BME280;44781;53.444;14.476;2023-10-13T06:28:01;101085.55;;;13.18;85.65
58991;BME280;44781;53.444;14.476;2023-10-13T06:30:57;101081.67;;;13.22;85.91
58991;BME280;44781;53.444;14.476;2023-10-13T06:33:24;101083.86;;;13.26;86.00
58991;BME280;44781;53.444;14.476;2023-10-13T06:35:56;101081.08;;;13.30;86.04
58991;BME280;44781;53.444;14.476;2023-10-13T06:38:23;101080.62;;;13.33;86.07
58991;BME280;44781;53.444;14.476;2023-10-13T06:40:51;101083.66;;;13.37;85.99
58991;BME280;44781;53.444;14.476;2023-10-13T06:43:19;101085.73;;;13.42;85.96
58991;BME280;44781;53.444;14.476;2023-10-13T06:45:48;101083.75;;;13.47;85.91
58991;BME280;44781;53.444;14.476;2023-10-13T06:48:27;101086.73;;;13.51;86.03
58991;BME280;44781;53.444;14.476;2023-10-13T06:50:59;101086.55;;;13.56;85.76
58991;BME280;44781;53.444;14.476;2023-10-13T06:53:33;101079.27;;;13.60;85.87
58991;BME280;44781;53.444;14.476;2023-10-13T06:56:07;101076.50;;;13.64;85.77
58991;BME280;44781;53.444;14.476;2023-10-13T06:58:36;101073.14;;;13.66;85.85
58991;BME280;44781;53.444;14.476;2023-10-13T07:01:06;101067.75;;;13.66;85.82
58991;BME280;44781;53.444;14.476;2023-10-13T07:03:34;101070.88;;;13.67;85.86
58991;BME280;44781;53.444;14.476;2023-10-13T07:06:05;101077.95;;;13.68;85.87
58991;BME280;44781;53.444;14.476;2023-10-13T07:08:37;101078.44;;;13.68;85.86
58991;BME280;44781;53.444;14.476;2023-10-13T07:11:05;101077.75;;;13.70;86.19
58991;BME280;44781;53.444;14.476;2023-10-13T07:13:32;101062.70;;;13.74;86.21
58991;BME280;44781;53.444;14.476;2023-10-13T07:16:06;101060.81;;;13.77;86.32
58991;BME280;44781;53.444;14.476;2023-10-13T07:18:39;101059.07;;;13.81;86.45
58991;BME280;44781;53.444;14.476;2023-10-13T07:21:19;101056.11;;;13.85;86.52
58991;BME280;44781;53.444;14.476;2023-10-13T07:23:58;101046.55;;;13.88;86.60
58991;BME280;44781;53.444;14.476;2023-10-13T07:26:36;101045.48;;;13.92;86.77
58991;BME280;44781;53.444;14.476;2023-10-13T07:29:25;101040.94;;;13.98;86.88
58991;BME280;44781;53.444;14.476;2023-10-13T07:31:52;101034.77;;;14.02;86.93
58991;BME280;44781;53.444;14.476;2023-10-13T07:34:19;101034.21;;;14.06;87.15
58991;BME280;44781;53.444;14.476;2023-10-13T07:36:55;101039.88;;;14.10;87.43
58991;BME280;44781;53.444;14.476;2023-10-13T07:39:28;101039.20;;;14.16;87.40
58991;BME280;44781;53.444;14.476;2023-10-13T07:42:01;101037.50;;;14.21;87.62
58991;BME280;44781;53.444;14.476;2023-10-13T07:44:32;101033.45;;;14.27;87.72
58991;BME280;44781;53.444;14.476;2023-10-13T07:47:01;101029.59;;;14.32;87.86
58991;BME280;44781;53.444;14.476;2023-10-13T07:49:37;101019.65;;;14.38;87.85
58991;BME280;44781;53.444;14.476;2023-10-13T07:52:08;101009.52;;;14.45;87.95
58991;BME280;44781;53.444;14.476;2023-10-13T07:54:51;101009.59;;;14.50;88.06
58991;BME280;44781;53.444;14.476;2023-10-13T07:57:41;101003.80;;;14.55;88.12
58991;BME280;44781;53.444;14.476;2023-10-13T08:00:21;101002.33;;;14.60;88.42
58991;BME280;44781;53.444;14.476;2023-10-13T08:03:09;100998.71;;;14.67;88.32
58991;BME280;44781;53.444;14.476;2023-10-13T08:05:57;101000.14;;;14.72;88.41
58991;BME280;44781;53.444;14.476;2023-10-13T08:08:46;101001.06;;;14.78;88.46
58991;BME280;44781;53.444;14.476;2023-10-13T08:11:17;101001.16;;;14.83;88.54
58991;BME280;44781;53.444;14.476;2023-10-13T08:13:51;100995.78;;;14.87;88.40
58991;BME280;44781;53.444;14.476;2023-10-13T08:16:39;100982.05;;;14.94;88.66
58991;BME280;44781;53.444;14.476;2023-10-13T08:19:27;100978.89;;;14.99;88.69
58991;BME280;44781;53.444;14.476;2023-10-13T08:21:56;100984.63;;;15.04;88.78
58991;BME280;44781;53.444;14.476;2023-10-13T08:24:52;100985.00;;;15.10;88.77
58991;BME280;44781;53.444;14.476;2023-10-13T08:27:21;100984.30;;;15.16;88.92
58991;BME280;44781;53.444;14.476;2023-10-13T08:30:07;100981.58;;;15.22;88.93
58991;BME280;44781;53.444;14.476;2023-10-13T08:32:53;100975.56;;;15.27;88.82
58991;BME280;44781;53.444;14.476;2023-10-13T08:35:26;100976.60;;;15.33;88.85
58991;BME280;44781;53.444;14.476;2023-10-13T08:38:03;100972.86;;;15.40;89.07
58991;BME280;44781;53.444;14.476;2023-10-13T08:40:32;100963.19;;;15.44;89.16
58991;BME280;44781;53.444;14.476;2023-10-13T08:43:32;100955.20;;;15.50;89.11
58991;BME280;44781;53.444;14.476;2023-10-13T08:46:20;100947.80;;;15.52;89.24
58991;BME280;44781;53.444;14.476;2023-10-13T08:48:58;100948.90;;;15.62;89.17
58991;BME280;44781;53.444;14.476;2023-10-13T08:51:53;100947.64;;;15.67;89.10
58991;BME280;44781;53.444;14.476;2023-10-13T08:54:53;100948.30;;;15.74;89.21
58991;BME280;44781;53.444;14.476;2023-10-13T08:57:31;100942.80;;;15.79;89.17
58991;BME280;44781;53.444;14.476;2023-10-13T09:00:01;100940.89;;;15.84;89.24
58991;BME280;44781;53.444;14.476;2023-10-13T09:02:52;100941.91;;;15.91;89.20
58991;BME280;44781;53.444;14.476;2023-10-13T09:05:27;100942.02;;;15.97;89.11
58991;BME280;44781;53.444;14.476;2023-10-13T09:08:11;100940.66;;;16.04;89.10
58991;BME280;44781;53.444;14.476;2023-10-13T09:10:43;100939.18;;;16.10;89.04
58991;BME280;44781;53.444;14.476;2023-10-13T09:13:36;100931.04;;;16.16;89.22
58991;BME280;44781;53.444;14.476;2023-10-13T09:16:13;100927.91;;;16.23;89.10
58991;BME280;44781;53.444;14.476;2023-10-13T09:19:10;100918.60;;;16.31;89.07
58991;BME280;44781;53.444;14.476;2023-10-13T09:21:39;100920.27;;;16.37;88.97
58991;BME280;44781;53.444;14.476;2023-10-13T09:24:11;100915.06;;;16.43;88.93
58991;BME280;44781;53.444;14.476;2023-10-13T09:26:48;100911.79;;;16.49;89.07
58991;BME280;44781;53.444;14.476;2023-10-13T09:29:23;100904.39;;;16.56;89.10
58991;BME280;44781;53.444;14.476;2023-10-13T09:32:02;100902.17;;;16.62;88.95
58991;BME280;44781;53.444;14.476;2023-10-13T09:34:30;100898.46;;;16.69;89.07
58991;BME280;44781;53.444;14.476;2023-10-13T09:37:00;100896.58;;;16.75;88.98
58991;BME280;44781;53.444;14.476;2023-10-13T09:39:30;100893.88;;;16.81;89.03
58991;BME280;44781;53.444;14.476;2023-10-13T09:42:22;100884.68;;;16.87;88.91
58991;BME280;44781;53.444;14.476;2023-10-13T09:44:52;100880.81;;;16.94;89.03
58991;BME280;44781;53.444;14.476;2023-10-13T09:47:26;100872.13;;;17.00;89.03
58991;BME280;44781;53.444;14.476;2023-10-13T09:50:04;100865.09;;;17.06;89.09
58991;BME280;44781;53.444;14.476;2023-10-13T09:52:42;100864.80;;;17.13;88.87
58991;BME280;44781;53.444;14.476;2023-10-13T09:55:19;100856.33;;;17.19;88.94
58991;BME280;44781;53.444;14.476;2023-10-13T09:57:53;100846.43;;;17.25;88.86
58991;BME280;44781;53.444;14.476;2023-10-13T10:00:28;100843.48;;;17.31;88.98
58991;BME280;44781;53.444;14.476;2023-10-13T10:03:01;100840.41;;;17.37;88.84
58991;BME280;44781;53.444;14.476;2023-10-13T10:06:03;100838.45;;;17.42;88.62
58991;BME280;44781;53.444;14.476;2023-10-13T10:08:31;100835.23;;;17.45;88.69
58991;BME280;44781;53.444;14.476;2023-10-13T10:11:10;100831.77;;;17.48;88.58
58991;BME280;44781;53.444;14.476;2023-10-13T10:16:43;100817.94;;;17.50;88.42
58991;BME280;44781;53.444;14.476;2023-10-13T10:19:18;100812.31;;;17.52;88.62
58991;BME280;44781;53.444;14.476;2023-10-13T10:21:45;100805.10;;;17.55;88.67
58991;BME280;44781;53.444;14.476;2023-10-13T10:24:22;100804.41;;;17.60;88.67
58991;BME280;44781;53.444;14.476;2023-10-13T10:26:57;100797.58;;;17.65;88.76
58991;BME280;44781;53.444;14.476;2023-10-13T10:29:24;100787.74;;;17.70;88.99
58991;BME280;44781;53.444;14.476;2023-10-13T10:31:52;100781.89;;;17.75;88.93
58991;BME280;44781;53.444;14.476;2023-10-13T10:34:19;100778.77;;;17.80;89.02
58991;BME280;44781;53.444;14.476;2023-10-13T10:36:53;100774.51;;;17.84;89.04
58991;BME280;44781;53.444;14.476;2023-10-13T10:39:31;100768.58;;;17.90;88.95
58991;BME280;44781;53.444;14.476;2023-10-13T10:42:14;100764.45;;;17.95;88.81
58991;BME280;44781;53.444;14.476;2023-10-13T10:44:50;100756.09;;;18.00;88.62
58991;BME280;44781;53.444;14.476;2023-10-13T10:47:23;100754.72;;;18.04;88.54
58991;BME280;44781;53.444;14.476;2023-10-13T10:50:03;100745.88;;;18.08;88.67
58991;BME280;44781;53.444;14.476;2023-10-13T10:52:46;100737.06;;;18.12;88.41
58991;BME280;44781;53.444;14.476;2023-10-13T10:55:19;100736.07;;;18.15;88.12
58991;BME280;44781;53.444;14.476;2023-10-13T10:57:58;100731.30;;;18.18;88.15
58991;BME280;44781;53.444;14.476;2023-10-13T11:00:28;100731.50;;;18.21;88.15
58991;BME280;44781;53.444;14.476;2023-10-13T11:03:08;100720.48;;;18.23;88.11
58991;BME280;44781;53.444;14.476;2023-10-13T11:05:44;100709.21;;;18.26;87.98
58991;BME280;44781;53.444;14.476;2023-10-13T11:08:22;100707.11;;;18.29;88.17
58991;BME280;44781;53.444;14.476;2023-10-13T11:10:58;100703.81;;;18.33;88.16
58991;BME280;44781;53.444;14.476;2023-10-13T11:13:41;100696.20;;;18.36;88.07
58991;BME280;44781;53.444;14.476;2023-10-13T11:16:21;100686.30;;;18.40;88.04
58991;BME280;44781;53.444;14.476;2023-10-13T11:19:04;100684.71;;;18.43;87.94
58991;BME280;44781;53.444;14.476;2023-10-13T11:21:31;100679.83;;;18.45;87.98
58991;BME280;44781;53.444;14.476;2023-10-13T11:23:59;100674.89;;;18.49;88.08
58991;BME280;44781;53.444;14.476;2023-10-13T11:26:36;100666.20;;;18.52;87.88
58991;BME280;44781;53.444;14.476;2023-10-13T11:29:31;100667.89;;;18.54;87.77
58991;BME280;44781;53.444;14.476;2023-10-13T11:32:00;100666.27;;;18.56;87.70
58991;BME280;44781;53.444;14.476;2023-10-13T11:34:29;100662.23;;;18.57;87.91
58991;BME280;44781;53.444;14.476;2023-10-13T11:37:06;100662.58;;;18.57;87.65
58991;BME280;44781;53.444;14.476;2023-10-13T11:39:54;100659.85;;;18.56;87.61
58991;BME280;44781;53.444;14.476;2023-10-13T11:42:22;100655.50;;;18.55;87.70
58991;BME280;44781;53.444;14.476;2023-10-13T11:44:48;100651.56;;;18.55;87.73
58991;BME280;44781;53.444;14.476;2023-10-13T11:47:28;100647.29;;;18.55;87.65
58991;BME280;44781;53.444;14.476;2023-10-13T11:50:14;100643.36;;;18.55;87.84
58991;BME280;44781;53.444;14.476;2023-10-13T11:52:56;100637.39;;;18.55;87.98
58991;BME280;44781;53.444;14.476;2023-10-13T11:55:24;100636.06;;;18.56;87.68
58991;BME280;44781;53.444;14.476;2023-10-13T11:57:52;100627.08;;;18.58;87.90
58991;BME280;44781;53.444;14.476;2023-10-13T12:00:19;100621.27;;;18.60;87.95
58991;BME280;44781;53.444;14.476;2023-10-13T12:03:11;100607.85;;;18.62;88.00
58991;BME280;44781;53.444;14.476;2023-10-13T12:05:57;100604.77;;;18.64;87.96
58991;BME280;44781;53.444;14.476;2023-10-13T12:08:46;100604.73;;;18.65;88.03
58991;BME280;44781;53.444;14.476;2023-10-13T12:11:19;100602.90;;;18.67;88.03
58991;BME280;44781;53.444;14.476;2023-10-13T12:13:58;100600.11;;;18.70;88.12
58991;BME280;44781;53.444;14.476;2023-10-13T12:16:25;100596.10;;;18.72;87.99
58991;BME280;44781;53.444;14.476;2023-10-13T12:19:01;100591.27;;;18.74;88.13
58991;BME280;44781;53.444;14.476;2023-10-13T12:21:27;100589.32;;;18.75;87.87
58991;BME280;44781;53.444;14.476;2023-10-13T12:23:55;100598.77;;;18.77;88.19
58991;BME280;44781;53.444;14.476;2023-10-13T12:26:25;100591.52;;;18.78;88.04
58991;BME280;44781;53.444;14.476;2023-10-13T12:28:59;100589.86;;;18.79;88.07
58991;BME280;44781;53.444;14.476;2023-10-13T12:31:45;100595.57;;;18.80;88.18
58991;BME280;44781;53.444;14.476;2023-10-13T12:34:19;100598.66;;;18.83;88.17
58991;BME280;44781;53.444;14.476;2023-10-13T12:36:57;100589.73;;;18.84;88.08
58991;BME280;44781;53.444;14.476;2023-10-13T12:39:44;100582.52;;;18.86;88.11
58991;BME280;44781;53.444;14.476;2023-10-13T12:42:30;100573.52;;;18.88;87.99
58991;BME280;44781;53.444;14.476;2023-10-13T12:45:26;100567.30;;;18.91;88.17
58991;BME280;44781;53.444;14.476;2023-10-13T12:48:11;100563.55;;;18.95;88.22
58991;BME280;44781;53.444;14.476;2023-10-13T12:51:01;100551.87;;;18.97;88.11
58991;BME280;44781;53.444;14.476;2023-10-13T12:53:47;100554.45;;;18.99;88.11
58991;BME280;44781;53.444;14.476;2023-10-13T12:56:16;100545.16;;;19.02;88.34
58991;BME280;44781;53.444;14.476;2023-10-13T12:58:44;100542.89;;;19.06;88.42
58991;BME280;44781;53.444;14.476;2023-10-13T13:01:19;100544.67;;;19.11;88.29
58991;BME280;44781;53.444;14.476;2023-10-13T13:03:48;100530.22;;;19.14;88.11
58991;BME280;44781;53.444;14.476;2023-10-13T13:06:20;100521.00;;;19.16;87.93
58991;BME280;44781;53.444;14.476;2023-10-13T13:08:59;100522.86;;;19.18;87.83
58991;BME280;44781;53.444;14.476;2023-10-13T13:11:27;100526.04;;;19.20;87.71
58991;BME280;44781;53.444;14.476;2023-10-13T13:13:57;100521.94;;;19.21;87.75
58991;BME280;44781;53.444;14.476;2023-10-13T13:16:36;100518.16;;;19.23;87.89
58991;BME280;44781;53.444;14.476;2023-10-13T13:19:19;100510.11;;;19.26;87.99
58991;BME280;44781;53.444;14.476;2023-10-13T13:21:52;100501.00;;;19.29;87.87
58991;BME280;44781;53.444;14.476;2023-10-13T13:24:19;100490.63;;;19.32;87.73
58991;BME280;44781;53.444;14.476;2023-10-13T13:26:46;100487.81;;;19.35;87.62
58991;BME280;44781;53.444;14.476;2023-10-13T13:29:15;100479.34;;;19.37;87.80
58991;BME280;44781;53.444;14.476;2023-10-13T13:31:44;100477.73;;;19.40;87.89
58991;BME280;44781;53.444;14.476;2023-10-13T13:34:12;100474.12;;;19.43;87.67
58991;BME280;44781;53.444;14.476;2023-10-13T13:36:41;100471.50;;;19.45;87.49